Webcam Flughafen St.Gallen-Altenrhein

Live-Bilder und Zeitraffer LSZR / ACH.

 

Live aus Altenrhein
LIVE
LSZR 141520Z 05006KT 9999 FEW060 24/09 Q1014 NOSIG RMK L
Zeitraffer heute
2020-07-14 00:14:30
LSZR 132150Z AUTO 19003KT CAVOK 17/10 Q1019